createdAt,value
2022-12-17T00:00:28.118Z,94170.22
2022-12-17T00:03:16.109Z,94189.75
2022-12-17T00:06:01.416Z,94164.81
2022-12-17T00:08:46.435Z,94187.84
2022-12-17T00:11:33.200Z,94175.41
2022-12-17T00:14:18.526Z,94194.47
2022-12-17T00:17:03.882Z,94171.75
2022-12-17T00:19:49.165Z,94153.81
2022-12-17T00:22:34.365Z,94172.56
2022-12-17T00:25:19.488Z,94191.13
2022-12-17T00:28:06.332Z,94163.34
2022-12-17T00:30:56.976Z,94173.94
2022-12-17T00:33:42.377Z,94156.75
2022-12-17T00:36:27.775Z,94174.34
2022-12-17T00:39:13.039Z,94175.16
2022-12-17T00:41:58.412Z,94179.00
2022-12-17T00:44:45.102Z,94149.34
2022-12-17T00:47:30.537Z,94178.00
2022-12-17T00:50:15.715Z,94168.66
2022-12-17T00:53:01.215Z,94152.53
2022-12-17T00:55:46.677Z,94163.00
2022-12-17T00:58:32.050Z,94158.28
2022-12-17T01:01:19.336Z,94140.16
2022-12-17T01:04:05.190Z,94141.06
2022-12-17T01:06:50.604Z,94170.38
2022-12-17T01:09:35.762Z,94151.13
2022-12-17T01:12:21.041Z,94179.19
2022-12-17T01:15:06.462Z,94182.44
2022-12-17T01:17:53.233Z,94134.66
2022-12-17T01:20:41.717Z,94162.81
2022-12-17T01:23:27.341Z,94167.06
2022-12-17T01:26:13.108Z,94154.56
2022-12-17T01:28:58.724Z,94191.78
2022-12-17T01:31:43.943Z,94128.81
2022-12-17T01:34:30.712Z,94191.22
2022-12-17T01:37:16.069Z,94164.22
2022-12-17T01:40:01.507Z,94160.91
2022-12-17T01:42:55.407Z,94168.50
2022-12-17T01:45:41.334Z,94133.28
2022-12-17T01:48:33.337Z,94179.03
2022-12-17T01:51:22.029Z,94151.25
2022-12-17T01:54:10.096Z,94149.34
2022-12-17T01:56:59.453Z,94126.66
2022-12-17T01:59:55.242Z,94160.16
2022-12-17T02:02:40.913Z,94161.13
2022-12-17T02:05:26.609Z,94142.81
2022-12-17T02:08:22.263Z,94146.69
2022-12-17T02:11:16.099Z,94153.25
2022-12-17T02:14:09.021Z,94140.59
2022-12-17T02:16:59.710Z,94119.03
2022-12-17T02:19:56.707Z,94146.09
2022-12-17T02:22:50.306Z,94144.56
2022-12-17T02:25:45.700Z,94113.22
2022-12-17T02:28:32.907Z,94135.00
2022-12-17T02:31:18.317Z,94148.38
2022-12-17T02:34:04.287Z,94107.59
2022-12-17T02:36:52.470Z,94125.03
2022-12-17T02:39:38.044Z,94100.00
2022-12-17T02:42:24.758Z,94113.88
2022-12-17T02:45:12.536Z,94124.53
2022-12-17T02:47:57.795Z,94130.25
2022-12-17T02:50:43.142Z,94115.25
2022-12-17T02:53:28.818Z,94097.16
2022-12-17T02:56:14.091Z,94092.84
2022-12-17T02:58:59.535Z,94093.00
2022-12-17T03:01:46.536Z,94074.53
2022-12-17T03:04:32.137Z,94099.69
2022-12-17T03:07:17.661Z,94086.47
2022-12-17T03:10:02.629Z,94106.47
2022-12-17T03:12:47.772Z,94059.88
2022-12-17T03:15:33.039Z,94076.94
2022-12-17T03:18:19.666Z,94058.59
2022-12-17T03:21:04.838Z,94069.91
2022-12-17T03:23:50.286Z,94073.66
2022-12-17T03:26:35.786Z,94067.31
2022-12-17T03:29:21.141Z,94078.91
2022-12-17T03:32:06.358Z,94057.75
2022-12-17T03:34:49.601Z,94073.88
2022-12-17T03:37:31.373Z,94071.56
2022-12-17T03:40:16.707Z,94071.91
2022-12-17T03:43:02.079Z,94094.16
2022-12-17T03:45:47.317Z,94069.03
2022-12-17T03:48:34.233Z,94068.38
2022-12-17T03:51:21.061Z,94061.28
2022-12-17T03:54:06.948Z,94072.72
2022-12-17T03:56:52.530Z,94065.22
2022-12-17T03:59:37.990Z,94076.84
2022-12-17T04:02:23.533Z,94079.94
2022-12-17T04:05:08.822Z,94059.78
2022-12-17T04:08:06.833Z,94083.69
2022-12-17T04:10:52.096Z,94077.34
2022-12-17T04:13:41.014Z,94084.84
2022-12-17T04:16:27.226Z,94072.69
2022-12-17T04:19:12.646Z,94066.25
2022-12-17T04:21:58.007Z,94073.66
2022-12-17T04:24:44.969Z,94096.25
2022-12-17T04:27:29.400Z,94092.25
2022-12-17T04:30:14.696Z,94071.28
2022-12-17T04:32:59.949Z,94103.66
2022-12-17T04:35:45.317Z,94072.88
2022-12-17T04:38:30.638Z,94084.97
2022-12-17T04:41:17.763Z,94074.97
2022-12-17T04:44:03.746Z,94093.50
2022-12-17T04:46:49.076Z,94114.03
2022-12-17T04:49:34.102Z,94105.81
2022-12-17T04:52:19.252Z,94108.56
2022-12-17T04:55:04.530Z,94123.75
2022-12-17T04:57:51.675Z,94138.59
2022-12-17T05:00:38.973Z,94120.84
2022-12-17T05:03:25.843Z,94122.44
2022-12-17T05:06:11.061Z,94138.31
2022-12-17T05:08:56.383Z,94157.16
2022-12-17T05:11:41.758Z,94112.59
2022-12-17T05:14:28.508Z,94183.47
2022-12-17T05:17:13.755Z,94149.59
2022-12-17T05:19:59.045Z,94168.31
2022-12-17T05:22:44.533Z,94149.63
2022-12-17T05:25:29.904Z,94160.59
2022-12-17T05:28:15.281Z,94160.44
2022-12-17T05:31:02.069Z,94140.88
2022-12-17T05:33:47.284Z,94130.06
2022-12-17T05:36:46.955Z,94138.63
2022-12-17T05:39:32.168Z,94158.97
2022-12-17T05:42:17.558Z,94187.41
2022-12-17T05:45:02.862Z,94156.72
2022-12-17T05:47:49.495Z,94144.44
2022-12-17T05:50:35.062Z,94159.78
2022-12-17T05:53:21.438Z,94157.19
2022-12-17T05:56:10.571Z,94135.38
2022-12-17T05:58:56.272Z,94146.72
2022-12-17T06:01:41.969Z,94151.72
2022-12-17T06:04:29.803Z,94145.72
2022-12-17T06:07:15.191Z,94171.56
2022-12-17T06:10:01.038Z,94159.78
2022-12-17T06:12:46.687Z,94182.56
2022-12-17T06:15:32.131Z,94181.44
2022-12-17T06:18:18.007Z,94187.41
2022-12-17T06:21:05.091Z,94168.66
2022-12-17T06:23:51.145Z,94182.72
2022-12-17T06:26:37.770Z,94225.03
2022-12-17T06:29:22.959Z,94203.06
2022-12-17T06:32:08.265Z,94217.28
2022-12-17T06:34:59.135Z,94226.66
2022-12-17T06:37:46.789Z,94263.34
2022-12-17T06:40:33.695Z,94233.78
2022-12-17T06:43:18.795Z,94216.00
2022-12-17T06:46:04.294Z,94275.31
2022-12-17T06:48:49.870Z,94232.16
2022-12-17T06:51:46.727Z,94248.16
2022-12-17T06:54:33.709Z,94203.06
2022-12-17T06:57:19.219Z,94229.38
2022-12-17T07:03:14.460Z,94264.94
2022-12-17T07:06:01.212Z,94333.22
2022-12-17T07:08:46.629Z,94334.66
2022-12-17T07:11:33.524Z,94327.34
2022-12-17T07:14:19.003Z,94332.16
2022-12-17T07:17:04.713Z,94371.34
2022-12-17T07:19:52.537Z,94402.41
2022-12-17T07:22:38.103Z,94398.47
2022-12-17T07:25:24.481Z,94352.78
2022-12-17T07:28:14.250Z,94322.63
2022-12-17T07:30:59.771Z,94311.72
2022-12-17T07:33:45.581Z,94315.94
2022-12-17T07:36:31.360Z,94305.06
2022-12-17T07:39:16.527Z,94319.28
2022-12-17T07:42:02.223Z,94284.16
2022-12-17T07:44:52.252Z,94308.25
2022-12-17T07:47:37.356Z,94289.03
2022-12-17T07:50:23.341Z,94272.16
2022-12-17T07:53:18.194Z,94285.59
2022-12-17T07:56:03.265Z,94248.31
2022-12-17T07:58:49.800Z,94225.75
2022-12-17T08:01:36.657Z,94194.72
2022-12-17T08:04:22.060Z,94197.72
2022-12-17T08:07:13.231Z,94216.13
2022-12-17T08:09:59.361Z,94238.09
2022-12-17T08:12:44.522Z,94241.59
2022-12-17T08:15:29.618Z,94269.19
2022-12-17T08:18:25.892Z,94286.44
2022-12-17T08:21:26.478Z,94328.53
2022-12-17T08:24:11.900Z,94323.00
2022-12-17T08:26:57.383Z,94342.53
2022-12-17T08:29:48.264Z,94327.53
2022-12-17T08:32:34.906Z,94306.59
2022-12-17T08:35:21.813Z,94293.34
2022-12-17T08:38:07.291Z,94306.16
2022-12-17T08:40:52.630Z,94305.72
2022-12-17T08:43:38.193Z,94311.63
2022-12-17T08:46:35.436Z,94324.25
2022-12-17T08:49:21.168Z,94350.69
2022-12-17T08:52:08.332Z,94368.81
2022-12-17T08:54:53.515Z,94347.44
2022-12-17T08:57:38.716Z,94387.31
2022-12-17T09:00:25.521Z,94377.50
2022-12-17T09:03:15.406Z,94354.31
2022-12-17T09:06:00.881Z,94351.78
2022-12-17T09:08:44.020Z,94355.59
2022-12-17T09:11:29.458Z,94366.84
2022-12-17T09:14:15.084Z,94400.41
2022-12-17T09:17:00.156Z,94399.69
2022-12-17T09:19:45.339Z,94408.09
2022-12-17T09:22:31.052Z,94413.63
2022-12-17T09:25:17.927Z,94423.56
2022-12-17T09:28:03.560Z,94435.53
2022-12-17T09:30:49.043Z,94453.94
2022-12-17T09:33:35.288Z,94460.31
2022-12-17T09:36:22.348Z,94465.91
2022-12-17T09:39:07.937Z,94468.53
2022-12-17T09:42:06.884Z,94443.69
2022-12-17T09:45:00.395Z,94446.34
2022-12-17T09:48:00.390Z,94452.53
2022-12-17T09:50:57.806Z,94465.81
2022-12-17T09:53:50.610Z,94473.25
2022-12-17T09:56:40.585Z,94441.56
2022-12-17T09:59:40.293Z,94430.09
2022-12-17T10:02:35.497Z,94447.88
2022-12-17T10:05:20.526Z,94444.88
2022-12-17T10:08:07.563Z,94428.34
2022-12-17T10:10:52.787Z,94426.44
2022-12-17T10:13:40.367Z,94425.53
2022-12-17T10:16:47.252Z,94460.44
2022-12-17T10:19:36.370Z,94488.81
2022-12-17T10:22:29.471Z,94478.84
2022-12-17T10:25:14.889Z,94517.81
2022-12-17T10:28:00.266Z,94512.19
2022-12-17T10:30:47.269Z,94492.63
2022-12-17T10:33:39.389Z,94462.28
2022-12-17T10:36:54.383Z,94466.91
2022-12-17T10:39:57.478Z,94451.81
2022-12-17T10:42:47.497Z,94440.22
2022-12-17T10:45:42.377Z,94435.84
2022-12-17T10:48:40.648Z,94423.75
2022-12-17T10:51:47.750Z,94441.25
2022-12-17T10:54:45.451Z,94398.63
2022-12-17T10:57:44.762Z,94389.88
2022-12-17T11:00:49.835Z,94382.84
2022-12-17T11:04:06.410Z,94375.25
2022-12-17T11:06:55.338Z,94367.22
2022-12-17T11:09:50.727Z,94354.00
2022-12-17T11:12:40.820Z,94372.50
2022-12-17T11:15:37.783Z,94377.66
2022-12-17T11:18:27.979Z,94389.38
2022-12-17T11:21:19.145Z,94384.72
2022-12-17T11:24:08.866Z,94415.94
2022-12-17T11:26:56.938Z,94429.28
2022-12-17T11:29:42.663Z,94433.38
2022-12-17T11:32:59.319Z,94443.91
2022-12-17T11:35:53.173Z,94442.91
2022-12-17T11:38:57.198Z,94441.66
2022-12-17T11:41:55.725Z,94445.16
2022-12-17T11:44:57.602Z,94443.75
2022-12-17T11:47:59.236Z,94462.31
2022-12-17T11:50:49.686Z,94458.56
2022-12-17T11:53:49.707Z,94447.94
2022-12-17T11:56:42.617Z,94439.81
2022-12-17T11:59:39.291Z,94434.75
2022-12-17T12:02:40.311Z,94422.97
2022-12-17T12:05:37.986Z,94427.69
2022-12-17T12:08:31.770Z,94430.13
2022-12-17T12:11:31.527Z,94450.84
2022-12-17T12:14:27.924Z,94452.75
2022-12-17T12:17:23.520Z,94445.63
2022-12-17T12:20:23.736Z,94451.03
2022-12-17T12:23:17.275Z,94434.28
2022-12-17T12:26:11.158Z,94428.81
2022-12-17T12:29:03.514Z,94454.38
2022-12-17T12:31:56.288Z,94445.06
2022-12-17T12:34:45.363Z,94451.16
2022-12-17T12:37:33.520Z,94450.03
2022-12-17T12:40:30.863Z,94445.38
2022-12-17T12:43:24.490Z,94432.31
2022-12-17T12:46:16.983Z,94435.38
2022-12-17T12:49:18.530Z,94431.75
2022-12-17T12:52:05.285Z,94419.19
2022-12-17T12:55:09.715Z,94436.34
2022-12-17T12:57:56.849Z,94461.69
2022-12-17T13:00:47.334Z,94448.81
2022-12-17T13:03:57.342Z,94430.19
2022-12-17T13:06:49.744Z,94454.50
2022-12-17T13:09:48.126Z,94442.09
2022-12-17T13:12:30.449Z,94416.97
2022-12-17T13:15:19.386Z,94405.13
2022-12-17T13:17:59.287Z,94433.78
2022-12-17T13:20:33.918Z,94429.25
2022-12-17T13:23:18.788Z,94425.84
2022-12-17T13:25:47.610Z,94424.97
2022-12-17T13:28:30.803Z,94445.19
2022-12-17T13:31:03.399Z,94445.19
2022-12-17T13:33:41.662Z,94460.41
2022-12-17T13:36:24.977Z,94465.50
2022-12-17T13:39:04.788Z,94458.03
2022-12-17T13:41:34.860Z,94465.97
2022-12-17T13:44:05.749Z,94460.69
2022-12-17T13:46:47.294Z,94468.31
2022-12-17T13:49:22.705Z,94477.28
2022-12-17T13:52:06.526Z,94467.78
2022-12-17T13:54:38.334Z,94468.31
2022-12-17T13:57:11.129Z,94469.38
2022-12-17T13:59:40.894Z,94462.81
2022-12-17T14:02:26.059Z,94461.16
2022-12-17T14:04:54.643Z,94456.84
2022-12-17T14:07:25.343Z,94476.56
2022-12-17T14:09:54.555Z,94474.66
2022-12-17T14:12:25.793Z,94474.91
2022-12-17T14:14:57.201Z,94493.13
2022-12-17T14:17:27.578Z,94496.69
2022-12-17T14:20:01.281Z,94493.44
2022-12-17T14:22:36.885Z,94498.38
2022-12-17T14:25:07.321Z,94499.47
2022-12-17T14:27:37.136Z,94501.63
2022-12-17T14:30:23.412Z,94499.75
2022-12-17T14:32:52.088Z,94500.94
2022-12-17T14:35:29.440Z,94499.41
2022-12-17T14:38:36.963Z,94497.53
2022-12-17T14:41:25.821Z,94490.72
2022-12-17T14:43:59.178Z,94508.03
2022-12-17T14:46:28.771Z,94498.78
2022-12-17T14:49:06.824Z,94505.63
2022-12-17T14:51:37.235Z,94511.34
2022-12-17T14:54:32.039Z,94516.09
2022-12-17T14:59:50.500Z,94509.28
2022-12-17T15:02:38.122Z,94503.19
2022-12-17T15:05:07.673Z,94493.00
2022-12-17T15:07:36.334Z,94505.69
2022-12-17T15:10:12.224Z,94515.31
2022-12-17T15:12:43.940Z,94498.75
2022-12-17T15:15:14.719Z,94504.16
2022-12-17T15:17:43.853Z,94527.91
2022-12-17T15:20:18.780Z,94521.53
2022-12-17T15:22:48.190Z,94539.28
2022-12-17T15:25:19.462Z,94533.91
2022-12-17T15:27:48.848Z,94543.31
2022-12-17T15:30:20.527Z,94547.72
2022-12-17T15:32:48.614Z,94541.28
2022-12-17T15:35:16.716Z,94544.06
2022-12-17T15:37:45.092Z,94545.81
2022-12-17T15:40:13.567Z,94548.34
2022-12-17T15:43:04.687Z,94530.50
2022-12-17T15:45:35.149Z,94549.44
2022-12-17T15:48:03.282Z,94542.22
2022-12-17T15:50:31.896Z,94556.25
2022-12-17T15:53:04.345Z,94546.31
2022-12-17T15:55:33.646Z,94549.59
2022-12-17T15:58:25.669Z,94548.88
2022-12-17T16:03:56.776Z,94563.75
2022-12-17T16:06:50.196Z,94570.97
2022-12-17T16:09:25.510Z,94570.69
2022-12-17T16:11:56.333Z,94577.88
2022-12-17T16:14:36.099Z,94578.03
2022-12-17T16:17:10.572Z,94576.16
2022-12-17T16:19:40.261Z,94595.91
2022-12-17T16:22:15.524Z,94590.56
2022-12-17T16:24:43.946Z,94583.09
2022-12-17T16:27:12.680Z,94608.84
2022-12-17T16:29:43.548Z,94598.16
2022-12-17T16:32:16.914Z,94603.34
2022-12-17T16:34:45.412Z,94629.91
2022-12-17T16:37:14.041Z,94617.47
2022-12-17T16:39:42.411Z,94613.69
2022-12-17T16:42:18.672Z,94619.31
2022-12-17T16:45:07.190Z,94604.88
2022-12-17T16:47:36.543Z,94609.94
2022-12-17T16:50:06.580Z,94605.84
2022-12-17T16:52:35.577Z,94621.03
2022-12-17T16:55:04.069Z,94631.94
2022-12-17T16:57:32.165Z,94622.88
2022-12-17T17:00:01.256Z,94623.72
2022-12-17T17:05:28.085Z,94625.97
2022-12-17T17:13:34.514Z,94640.53
2022-12-17T17:16:03.056Z,94644.75
2022-12-17T17:18:45.659Z,94654.16
2022-12-17T17:21:24.569Z,94653.19
2022-12-17T17:23:55.189Z,94669.25
2022-12-17T17:26:26.534Z,94663.97
2022-12-17T17:28:59.588Z,94675.81
2022-12-17T17:32:01.248Z,94672.59
2022-12-17T17:38:04.847Z,94673.22
2022-12-17T17:43:19.703Z,94686.13
2022-12-17T17:45:57.116Z,94680.28
2022-12-17T17:48:26.493Z,94699.72
2022-12-17T17:51:04.174Z,94678.19
2022-12-17T17:56:41.792Z,94698.19
2022-12-17T17:59:13.884Z,94702.72
2022-12-17T18:04:44.348Z,94714.72
2022-12-17T18:07:25.228Z,94723.34
2022-12-17T18:10:01.344Z,94727.38
2022-12-17T18:18:35.589Z,94748.47
2022-12-17T18:21:22.630Z,94753.63
2022-12-17T18:23:55.526Z,94758.81
2022-12-17T18:26:41.626Z,94738.53
2022-12-17T18:29:17.649Z,94758.34
2022-12-17T18:32:23.717Z,94772.75
2022-12-17T18:35:05.979Z,94773.69
2022-12-17T18:37:34.173Z,94766.16
2022-12-17T18:40:02.557Z,94782.84
2022-12-17T18:42:49.557Z,94795.59
2022-12-17T18:45:17.961Z,94769.88
2022-12-17T18:47:47.114Z,94775.66
2022-12-17T18:50:15.619Z,94789.78
2022-12-17T18:52:43.618Z,94793.34
2022-12-17T18:55:12.243Z,94796.28
2022-12-17T18:57:43.037Z,94785.84
2022-12-17T19:00:14.125Z,94789.09
2022-12-17T19:02:43.518Z,94803.00
2022-12-17T19:05:26.473Z,94815.59
2022-12-17T19:07:59.518Z,94801.19
2022-12-17T19:10:29.879Z,94790.13
2022-12-17T19:13:01.104Z,94816.91
2022-12-17T19:15:29.383Z,94802.50
2022-12-17T19:18:21.416Z,94819.47
2022-12-17T19:23:43.820Z,94835.72
2022-12-17T19:29:30.503Z,94823.69
2022-12-17T19:31:59.199Z,94843.81
2022-12-17T19:34:41.910Z,94843.81
2022-12-17T19:37:15.462Z,94856.31
2022-12-17T19:39:44.277Z,94859.34
2022-12-17T19:45:31.670Z,94836.44
2022-12-17T19:48:15.480Z,94849.69
2022-12-17T19:50:45.895Z,94850.19
2022-12-17T19:53:28.563Z,94857.81
2022-12-17T19:55:58.708Z,94853.50
2022-12-17T20:01:13.961Z,94842.94
2022-12-17T20:06:33.286Z,94871.25
2022-12-17T20:09:09.650Z,94863.13
2022-12-17T20:11:38.382Z,94885.56
2022-12-17T20:14:21.487Z,94856.69
2022-12-17T20:16:55.359Z,94887.25
2022-12-17T20:19:25.970Z,94880.88
2022-12-17T20:21:56.006Z,94892.28
2022-12-17T20:27:11.364Z,94905.38
2022-12-17T20:29:39.799Z,94896.63
2022-12-17T20:32:19.533Z,94914.59
2022-12-17T20:34:51.328Z,94912.75
2022-12-17T20:37:19.811Z,94931.00
2022-12-17T20:39:48.570Z,94914.81
2022-12-17T20:42:35.504Z,94921.16
2022-12-17T20:45:05.008Z,94916.22
2022-12-17T20:47:37.514Z,94913.63
2022-12-17T20:50:09.369Z,94912.50
2022-12-17T20:52:47.349Z,94926.84
2022-12-17T20:55:17.989Z,94937.09
2022-12-17T20:57:46.183Z,94935.78
2022-12-17T21:00:14.814Z,94947.91
2022-12-17T21:02:45.759Z,94957.78
2022-12-17T21:05:15.381Z,94948.63
2022-12-17T21:07:43.873Z,94960.00
2022-12-17T21:10:28.744Z,94953.78
2022-12-17T21:13:20.199Z,94956.50
2022-12-17T21:18:59.162Z,94951.25
2022-12-17T21:24:34.767Z,94959.16
2022-12-17T21:27:21.377Z,94976.00
2022-12-17T21:32:58.310Z,94974.28
2022-12-17T21:35:28.606Z,94993.53
2022-12-17T21:37:57.314Z,94987.44
2022-12-17T21:40:25.387Z,94990.03
2022-12-17T21:43:05.645Z,94993.97
2022-12-17T21:45:38.952Z,94985.56
2022-12-17T21:48:11.581Z,95001.66
2022-12-17T21:50:46.238Z,94997.28
2022-12-17T21:53:20.223Z,94984.81
2022-12-17T21:55:48.828Z,95009.00
2022-12-17T21:58:19.488Z,95005.75
2022-12-17T22:00:48.184Z,95024.69
2022-12-17T22:03:24.853Z,95016.94
2022-12-17T22:05:54.874Z,95010.69
2022-12-17T22:08:23.244Z,95033.53
2022-12-17T22:10:51.845Z,95031.91
2022-12-17T22:13:37.735Z,95049.72
2022-12-17T22:16:33.839Z,95033.94
2022-12-17T22:19:07.565Z,95027.56
2022-12-17T22:21:46.989Z,95031.19
2022-12-17T22:24:16.892Z,95041.53
2022-12-17T22:29:45.551Z,95050.00
2022-12-17T22:32:31.882Z,95047.28
2022-12-17T22:36:05.567Z,95055.84
2022-12-17T22:41:46.001Z,95060.34
2022-12-17T22:44:36.891Z,95064.97
2022-12-17T22:44:46.624Z,95059.25
2022-12-17T22:46:20.658Z,95047.47
2022-12-17T22:48:49.599Z,95065.53
2022-12-17T22:51:29.615Z,95064.72
2022-12-17T22:54:05.389Z,95077.47
2022-12-17T22:57:10.318Z,95078.28
2022-12-17T22:59:23.953Z,95085.63
2022-12-17T23:01:52.643Z,95100.03
2022-12-17T23:04:21.237Z,95084.00
2022-12-17T23:06:49.407Z,95096.06
2022-12-17T23:09:20.412Z,95100.13
2022-12-17T23:11:49.598Z,95103.00
2022-12-17T23:14:18.686Z,95101.66
2022-12-17T23:16:47.268Z,95109.91
2022-12-17T23:19:15.697Z,95114.13
2022-12-17T23:21:44.019Z,95124.28
2022-12-17T23:24:12.043Z,95116.03
2022-12-17T23:26:41.413Z,95132.91
2022-12-17T23:29:19.019Z,95134.63
2022-12-17T23:31:47.340Z,95126.03
2022-12-17T23:34:15.650Z,95127.66
2022-12-17T23:36:43.787Z,95148.16
2022-12-17T23:39:11.836Z,95134.53
2022-12-17T23:41:41.364Z,95159.56
2022-12-17T23:44:09.432Z,95175.38
2022-12-17T23:46:37.767Z,95156.38
2022-12-17T23:49:06.557Z,95157.91
2022-12-17T23:51:35.163Z,95164.97
2022-12-17T23:54:03.282Z,95161.47
2022-12-17T23:56:31.366Z,95182.16
2022-12-17T23:59:03.349Z,95189.53
